Time;durP1;ratioP1;P1;durP2;ratioP2;P2;SDS_P1;SDS_P2;PMS_P1;PMS_P2;Temp;Humidity;BMP_temperature;BMP_pressure;BME280_temperature;BME280_humidity;BME280_pressure;Samples;Min_cycle;Max_cycle;Signal;HPM_P1;HPM_P2
2022/08/19 00:01:39;;;;;;;7.10;4.00;;;21.70;85.10;;;;;;4948653;28;20119;-70
2022/08/19 00:04:08;;;;;;;6.93;4.28;;;21.60;85.00;;;;;;4956369;28;20039;-71
2022/08/19 00:06:35;;;;;;;10.45;4.75;;;21.50;85.00;;;;;;4957381;28;20118;-71
2022/08/19 00:09:02;;;;;;;15.85;4.68;;;21.60;85.30;;;;;;4943260;28;20059;-70
2022/08/19 00:11:28;;;;;;;12.23;4.85;;;21.50;85.30;;;;;;4964691;28;20398;-71
2022/08/19 00:13:56;;;;;;;6.65;4.65;;;21.50;85.40;;;;;;4953419;28;20020;-71
2022/08/19 00:16:23;;;;;;;7.78;4.28;;;21.50;85.50;;;;;;4937123;28;20036;-71
2022/08/19 00:18:48;;;;;;;10.77;4.65;;;21.50;85.70;;;;;;4942734;28;20047;-71
2022/08/19 00:21:15;;;;;;;10.13;4.80;;;21.40;85.60;;;;;;4956689;28;20031;-71
2022/08/19 00:23:42;;;;;;;8.27;4.43;;;21.40;85.80;;;;;;4942952;28;20106;-71
2022/08/19 00:26:09;;;;;;;7.93;4.20;;;21.40;85.90;;;;;;4956751;28;20395;-71
2022/08/19 00:28:35;;;;;;;6.78;3.97;;;21.40;86.00;;;;;;4954389;28;20443;-71
2022/08/19 00:31:02;;;;;;;7.07;4.40;;;21.30;86.00;;;;;;4955671;28;20031;-71
2022/08/19 00:33:32;;;;;;;12.43;4.60;;;21.30;86.10;;;;;;4950078;28;20122;-71
2022/08/19 00:36:03;;;;;;;11.18;5.43;;;21.30;85.90;;;;;;4949017;28;20051;-71
2022/08/19 00:38:29;;;;;;;7.50;4.88;;;21.20;85.90;;;;;;4956441;28;20067;-71
2022/08/19 00:40:55;;;;;;;10.25;5.07;;;21.20;86.00;;;;;;4954816;28;20491;-71
2022/08/19 00:43:24;;;;;;;10.65;5.38;;;21.20;86.10;;;;;;4944308;28;20122;-71
2022/08/19 00:45:51;;;;;;;6.93;4.38;;;21.20;86.20;;;;;;4954630;28;20042;-71
2022/08/19 00:48:18;;;;;;;8.80;5.38;;;21.20;86.20;;;;;;4956422;28;20031;-71
2022/08/19 00:50:44;;;;;;;9.88;4.90;;;21.20;86.20;;;;;;4953955;28;20063;-71
2022/08/19 00:53:17;;;;;;;6.47;4.55;;;21.10;86.10;;;;;;4951753;28;20082;-71
2022/08/19 00:55:46;;;;;;;12.82;4.47;;;21.10;86.10;;;;;;4955258;28;20039;-71
2022/08/19 00:58:15;;;;;;;10.85;3.95;;;21.10;85.70;;;;;;4954353;28;20039;-71
2022/08/19 01:00:40;;;;;;;9.50;4.40;;;21.10;85.60;;;;;;4955822;28;20114;-71
2022/08/19 01:03:09;;;;;;;30.95;4.97;;;21.00;85.50;;;;;;4947307;28;20075;-70
2022/08/19 01:05:36;;;;;;;11.77;4.65;;;21.00;85.40;;;;;;4941636;28;20033;-71
2022/08/19 01:08:04;;;;;;;10.15;4.97;;;20.90;85.30;;;;;;4954321;28;20035;-71
2022/08/19 01:10:35;;;;;;;6.60;4.53;;;21.00;85.50;;;;;;4953326;28;20399;-71
2022/08/19 01:13:02;;;;;;;12.23;5.22;;;20.90;85.70;;;;;;4943542;28;20051;-71
2022/08/19 01:15:35;;;;;;;7.55;4.75;;;20.90;85.90;;;;;;4955801;28;20046;-71
2022/08/19 01:18:06;;;;;;;8.05;5.40;;;20.80;85.90;;;;;;4941216;28;20046;-71
2022/08/19 01:20:33;;;;;;;8.30;4.78;;;20.80;86.00;;;;;;4947288;28;20036;-71
2022/08/19 01:22:59;;;;;;;8.20;5.45;;;20.80;86.00;;;;;;4950022;28;20046;-71
2022/08/19 01:25:30;;;;;;;9.00;5.40;;;20.80;86.10;;;;;;4954315;28;20082;-71
2022/08/19 01:27:57;;;;;;;11.80;5.53;;;20.80;86.00;;;;;;4954807;28;20125;-71
2022/08/19 01:30:30;;;;;;;10.98;5.93;;;20.80;86.10;;;;;;4936246;28;20063;-71
2022/08/19 01:32:56;;;;;;;10.23;5.53;;;20.70;86.00;;;;;;4936644;28;20039;-71
2022/08/19 01:35:24;;;;;;;8.43;5.45;;;20.70;86.00;;;;;;4955158;28;20031;-71
2022/08/19 01:37:52;;;;;;;8.88;5.63;;;20.60;86.30;;;;;;4952399;28;20050;-71
2022/08/19 01:40:20;;;;;;;9.80;6.60;;;20.70;86.60;;;;;;4947109;28;20032;-71
2022/08/19 01:42:47;;;;;;;9.73;5.70;;;20.70;87.00;;;;;;4947515;28;20047;-71
2022/08/19 01:45:13;;;;;;;10.65;5.75;;;20.70;87.30;;;;;;4936165;28;20395;-71
2022/08/19 01:47:39;;;;;;;10.95;6.00;;;20.60;87.40;;;;;;4943457;28;20035;-71
2022/08/19 01:50:09;;;;;;;11.40;6.20;;;20.60;87.70;;;;;;4952815;28;20583;-70
2022/08/19 01:52:36;;;;;;;11.13;6.22;;;20.60;88.00;;;;;;4937352;28;20036;-70
2022/08/19 01:55:03;;;;;;;8.10;5.90;;;20.60;88.10;;;;;;4949392;28;20039;-70
2022/08/19 01:57:29;;;;;;;11.07;6.53;;;20.60;88.20;;;;;;4945238;28;20031;-71
2022/08/19 01:59:56;;;;;;;9.32;6.38;;;20.50;88.80;;;;;;4948841;28;20050;-71
2022/08/19 02:02:22;;;;;;;10.77;6.15;;;20.50;88.20;;;;;;4937278;28;20056;-70
2022/08/19 02:04:47;;;;;;;12.30;6.95;;;20.50;88.30;;;;;;4948564;28;20035;-71
2022/08/19 02:07:13;;;;;;;12.15;5.90;;;20.50;88.40;;;;;;4943033;28;20027;-70
2022/08/19 02:09:39;;;;;;;9.05;5.82;;;20.40;88.40;;;;;;4952660;28;20091;-70
2022/08/19 02:12:05;;;;;;;14.05;7.13;;;20.40;88.70;;;;;;4946488;28;20024;-71
2022/08/19 02:14:30;;;;;;;9.95;6.00;;;20.40;88.80;;;;;;4946851;28;20038;-71
2022/08/19 02:16:56;;;;;;;9.82;7.25;;;20.40;88.90;;;;;;4946934;28;20079;-71
2022/08/19 02:19:22;;;;;;;12.10;6.60;;;20.40;89.10;;;;;;4949571;28;20491;-70
2022/08/19 02:21:47;;;;;;;11.48;5.95;;;20.40;89.40;;;;;;4953906;28;20027;-71
2022/08/19 02:24:13;;;;;;;8.68;6.25;;;20.40;89.60;;;;;;4940369;28;20067;-71
2022/08/19 02:26:39;;;;;;;8.13;6.13;;;20.40;89.70;;;;;;4935732;28;20055;-71
2022/08/19 02:29:07;;;;;;;11.32;5.85;;;20.30;89.80;;;;;;4948957;28;20039;-71
2022/08/19 02:31:33;;;;;;;7.90;5.25;;;20.30;89.90;;;;;;4954474;28;20422;-71
2022/08/19 02:33:59;;;;;;;10.77;5.75;;;20.30;89.90;;;;;;4940885;28;20031;-71
2022/08/19 02:36:25;;;;;;;20.95;5.85;;;20.30;89.90;;;;;;4953891;28;20494;-71
2022/08/19 02:38:51;;;;;;;7.95;5.32;;;20.20;89.70;;;;;;4939582;28;20031;-71
2022/08/19 02:41:21;;;;;;;7.03;4.90;;;20.30;89.70;;;;;;4936877;28;20118;-71
2022/08/19 02:43:47;;;;;;;6.10;4.72;;;20.20;89.60;;;;;;4946728;28;20035;-71
2022/08/19 02:46:20;;;;;;;6.32;4.90;;;20.20;89.60;;;;;;4944743;28;20235;-71
2022/08/19 02:48:50;;;;;;;10.80;4.70;;;20.20;89.50;;;;;;4949252;28;20486;-71
2022/08/19 02:51:25;;;;;;;6.32;4.70;;;20.10;89.50;;;;;;4944313;28;20046;-71
2022/08/19 02:53:51;;;;;;;6.25;5.05;;;20.10;89.60;;;;;;4949067;28;20028;-71
2022/08/19 02:56:18;;;;;;;12.48;5.05;;;20.20;89.60;;;;;;4946987;28;20027;-71
2022/08/19 02:58:44;;;;;;;7.38;5.45;;;20.10;89.60;;;;;;4947753;28;20073;-71
2022/08/19 03:01:10;;;;;;;7.95;5.07;;;20.10;89.70;;;;;;4947375;28;20043;-71
2022/08/19 03:03:38;;;;;;;5.68;3.78;;;20.10;89.80;;;;;;4935245;28;20047;-71
2022/08/19 03:06:12;;;;;;;6.53;4.28;;;20.00;89.70;;;;;;4946541;28;20087;-70
2022/08/19 03:08:40;;;;;;;6.75;4.60;;;20.00;89.60;;;;;;4947461;28;20064;-71
2022/08/19 03:11:06;;;;;;;7.18;4.35;;;20.00;89.60;;;;;;4938844;28;20118;-71
2022/08/19 03:13:32;;;;;;;7.70;5.30;;;20.00;89.50;;;;;;4961011;28;20041;-71
2022/08/19 03:15:58;;;;;;;6.57;4.88;;;20.00;89.50;;;;;;4949830;28;20040;-71
2022/08/19 03:18:23;;;;;;;8.82;5.30;;;19.90;89.40;;;;;;4949689;28;20050;-71
2022/08/19 03:20:53;;;;;;;7.35;4.95;;;19.90;89.40;;;;;;4951134;28;20553;-71
2022/08/19 03:23:19;;;;;;;6.70;5.30;;;19.90;89.50;;;;;;4939673;28;20227;-70
2022/08/19 03:25:47;;;;;;;7.45;4.95;;;19.90;89.50;;;;;;4939530;28;20107;-71
2022/08/19 03:28:14;;;;;;;6.82;4.97;;;19.80;89.30;;;;;;4950019;28;20031;-71
2022/08/19 03:30:41;;;;;;;8.30;5.47;;;19.80;89.40;;;;;;4952464;28;20110;-71
2022/08/19 03:33:08;;;;;;;9.38;5.78;;;19.80;89.60;;;;;;4948977;28;20046;-70
2022/08/19 03:35:36;;;;;;;12.27;5.47;;;19.80;89.90;;;;;;4939670;28;20035;-71
2022/08/19 03:38:03;;;;;;;7.78;5.35;;;19.80;90.00;;;;;;4939719;28;20071;-71
2022/08/19 03:40:30;;;;;;;7.35;5.43;;;19.80;89.90;;;;;;4951857;28;20039;-71
2022/08/19 03:42:56;;;;;;;11.82;5.50;;;19.70;89.90;;;;;;4948363;28;20472;-71
2022/08/19 03:45:23;;;;;;;9.65;6.15;;;19.80;90.00;;;;;;4940089;28;20035;-71
2022/08/19 03:47:48;;;;;;;7.97;5.60;;;19.70;90.00;;;;;;4938479;28;20043;-70
2022/08/19 03:50:14;;;;;;;8.73;5.32;;;19.70;90.00;;;;;;4941758;28;20383;-71
2022/08/19 03:52:40;;;;;;;9.65;5.38;;;19.70;90.00;;;;;;4954848;28;20122;-70
2022/08/19 03:55:06;;;;;;;11.70;6.13;;;19.70;90.10;;;;;;4953472;28;20106;-70
2022/08/19 03:57:34;;;;;;;9.35;6.20;;;19.60;90.10;;;;;;4940687;28;20048;-70
2022/08/19 04:00:00;;;;;;;11.07;5.57;;;19.70;90.00;;;;;;4954065;28;20023;-70
2022/08/19 04:02:25;;;;;;;11.57;6.00;;;19.60;90.00;;;;;;4948580;28;20447;-70
2022/08/19 04:04:54;;;;;;;11.38;5.68;;;19.60;90.10;;;;;;4951147;28;20039;-71
2022/08/19 04:07:21;;;;;;;8.77;6.03;;;19.60;90.10;;;;;;4952672;28;20482;-70
2022/08/19 04:09:48;;;;;;;14.27;6.05;;;19.50;90.20;;;;;;4943524;28;20101;-70
2022/08/19 04:12:14;;;;;;;9.82;5.55;;;19.50;90.20;;;;;;4945841;28;20109;-70
2022/08/19 04:14:41;;;;;;;8.25;6.13;;;19.50;90.30;;;;;;4962114;28;20020;-70
2022/08/19 04:17:06;;;;;;;8.55;5.63;;;19.60;90.30;;;;;;4947084;28;20117;-70
2022/08/19 04:19:35;;;;;;;7.45;5.47;;;19.50;90.40;;;;;;4955955;28;20114;-70
2022/08/19 04:22:01;;;;;;;10.50;6.05;;;19.50;90.50;;;;;;4953628;28;20020;-70
2022/08/19 04:24:26;;;;;;;10.38;6.43;;;19.50;90.60;;;;;;4953328;28;20086;-70
2022/08/19 04:26:53;;;;;;;9.38;6.40;;;19.50;90.60;;;;;;4955723;28;20434;-70
2022/08/19 04:29:24;;;;;;;9.60;6.05;;;19.50;90.70;;;;;;4952278;28;20027;-70
2022/08/19 04:31:50;;;;;;;10.95;6.95;;;19.50;90.80;;;;;;4952091;28;20035;-70
2022/08/19 04:34:18;;;;;;;13.15;7.28;;;19.50;91.00;;;;;;4955482;28;20012;-70
2022/08/19 04:36:44;;;;;;;13.30;6.88;;;19.50;91.10;;;;;;4955163;28;20067;-70
2022/08/19 04:39:16;;;;;;;9.82;7.10;;;19.50;91.20;;;;;;4955074;28;20043;-70
2022/08/19 04:44:30;;;;;;;13.40;7.15;;;19.50;91.30;;;;;;4951141;28;20031;-70
2022/08/19 04:46:56;;;;;;;12.35;7.45;;;19.50;91.30;;;;;;4955166;28;20426;-70
2022/08/19 04:49:22;;;;;;;12.45;7.25;;;19.40;91.30;;;;;;4954508;28;20118;-71
2022/08/19 04:51:49;;;;;;;11.18;7.07;;;19.40;91.30;;;;;;4955200;28;20035;-70
2022/08/19 04:54:17;;;;;;;11.35;7.00;;;19.40;91.10;;;;;;4955409;28;20029;-71
2022/08/19 04:56:43;;;;;;;15.15;7.15;;;19.40;91.00;;;;;;4954028;28;20082;-71
2022/08/19 04:59:10;;;;;;;13.35;5.63;;;19.30;91.00;;;;;;4955356;28;20043;-71
2022/08/19 05:01:36;;;;;;;33.80;6.20;;;19.30;90.90;;;;;;4954343;28;20037;-70
2022/08/19 05:04:04;;;;;;;41.10;6.05;;;19.30;91.00;;;;;;4954429;28;20039;-71
2022/08/19 05:06:33;;;;;;;96.10;6.28;;;19.30;91.10;;;;;;4953275;28;20371;-70
2022/08/19 05:09:00;;;;;;;29.63;5.90;;;19.30;91.10;;;;;;4954159;28;20428;-70
2022/08/19 05:11:29;;;;;;;33.78;5.57;;;19.30;91.20;;;;;;4950139;28;20040;-70
2022/08/19 05:13:55;;;;;;;51.45;5.78;;;19.30;91.30;;;;;;4956213;28;20031;-70
2022/08/19 05:16:23;;;;;;;27.55;6.18;;;19.30;91.30;;;;;;4953457;28;20123;-70
2022/08/19 05:24:20;;;;;;;38.40;5.53;;;19.30;91.50;;;;;;4950662;28;20032;-70
2022/08/19 05:26:49;;;;;;;38.40;4.88;;;19.30;91.60;;;;;;4955237;28;20502;-70
2022/08/19 05:29:18;;;;;;;57.08;4.65;;;19.30;91.70;;;;;;4954725;28;20028;-70
2022/08/19 05:31:45;;;;;;;59.60;4.60;;;19.30;91.50;;;;;;4953338;28;20027;-70
2022/08/19 05:34:11;;;;;;;31.73;4.07;;;19.20;91.30;;;;;;4949085;28;20035;-70
2022/08/19 05:36:40;;;;;;;10.68;4.13;;;19.30;91.20;;;;;;4953032;28;20047;-70
2022/08/19 05:39:07;;;;;;;8.57;3.75;;;19.20;91.30;;;;;;4949268;28;20047;-71
2022/08/19 05:41:33;;;;;;;5.25;3.60;;;19.20;91.00;;;;;;4954216;28;20070;-70
2022/08/19 05:44:06;;;;;;;10.40;3.90;;;19.20;90.90;;;;;;4953464;28;20063;-70
2022/08/19 05:46:32;;;;;;;6.68;4.10;;;19.20;90.90;;;;;;4953325;28;20031;-70
2022/08/19 05:48:58;;;;;;;15.23;3.88;;;19.20;90.50;;;;;;4952272;28;20094;-70
2022/08/19 05:51:24;;;;;;;12.20;3.17;;;19.20;90.30;;;;;;4952255;28;20039;-70
2022/08/19 05:53:51;;;;;;;6.57;4.07;;;19.20;90.20;;;;;;4950956;28;20035;-70
2022/08/19 05:56:18;;;;;;;8.05;4.53;;;19.10;90.10;;;;;;4954237;28;20019;-70
2022/08/19 05:58:45;;;;;;;12.98;5.47;;;19.20;90.30;;;;;;4952434;28;20071;-70
2022/08/19 06:01:14;;;;;;;6.80;4.47;;;19.10;90.40;;;;;;4951039;28;20102;-70
2022/08/19 06:03:40;;;;;;;8.63;4.97;;;19.20;90.40;;;;;;4951558;28;20055;-70
2022/08/19 06:06:08;;;;;;;7.43;5.45;;;19.20;90.60;;;;;;4952425;28;20027;-70
2022/08/19 06:08:35;;;;;;;9.48;5.32;;;19.20;90.80;;;;;;4954084;28;20039;-70
2022/08/19 06:11:21;;;;;;;9.38;5.53;;;19.20;90.70;;;;;;4951158;28;20123;-70
2022/08/19 06:13:50;;;;;;;7.10;3.72;;;19.20;90.80;;;;;;4952609;28;20031;-70
2022/08/19 06:16:22;;;;;;;9.57;4.90;;;19.30;90.20;;;;;;4949488;28;20035;-70
2022/08/19 06:18:52;;;;;;;8.30;4.88;;;19.30;90.30;;;;;;4951355;28;20039;-70
2022/08/19 06:21:22;;;;;;;7.30;4.90;;;19.30;90.60;;;;;;4950474;28;20101;-70
2022/08/19 06:23:50;;;;;;;8.13;4.50;;;19.30;90.70;;;;;;4954122;28;20031;-70
2022/08/19 06:26:16;;;;;;;7.53;4.35;;;19.30;90.70;;;;;;4952816;28;20046;-70
2022/08/19 06:28:45;;;;;;;11.02;6.07;;;19.30;90.20;;;;;;4953596;28;20418;-70
2022/08/19 06:31:13;;;;;;;9.60;5.15;;;19.40;90.40;;;;;;4941495;28;20491;-70
2022/08/19 06:33:40;;;;;;;9.07;5.90;;;19.30;90.40;;;;;;4951835;28;20036;-70
2022/08/19 06:36:05;;;;;;;13.18;5.63;;;19.30;90.30;;;;;;4951070;28;20034;-70
2022/08/19 06:38:33;;;;;;;11.32;5.50;;;19.40;90.30;;;;;;4949432;28;20043;-70
2022/08/19 06:41:03;;;;;;;6.28;3.80;;;19.40;90.30;;;;;;4952700;28;20035;-70
2022/08/19 06:43:29;;;;;;;12.77;5.72;;;19.40;90.20;;;;;;4950832;28;20094;-70
2022/08/19 06:45:55;;;;;;;7.75;5.43;;;19.40;90.50;;;;;;4952959;28;20067;-70
2022/08/19 06:48:20;;;;;;;18.52;6.65;;;19.40;90.50;;;;;;4950681;28;20038;-70
2022/08/19 06:50:47;;;;;;;12.88;5.43;;;19.40;90.80;;;;;;4949879;28;20027;-70
2022/08/19 06:53:12;;;;;;;8.93;4.65;;;19.50;90.70;;;;;;4952072;28;20086;-70
2022/08/19 06:55:39;;;;;;;10.32;3.53;;;19.50;90.20;;;;;;4950863;28;20106;-70
2022/08/19 06:58:04;;;;;;;9.88;5.70;;;19.50;90.20;;;;;;4950869;28;20039;-70
2022/08/19 07:00:33;;;;;;;11.32;6.00;;;19.60;90.70;;;;;;4950781;28;20073;-70
2022/08/19 07:03:00;;;;;;;13.88;5.85;;;19.50;91.10;;;;;;4949800;28;20043;-70
2022/08/19 07:05:25;;;;;;;11.55;5.78;;;19.50;91.00;;;;;;4948606;28;20039;-70
2022/08/19 07:07:51;;;;;;;11.63;6.70;;;19.60;91.10;;;;;;4949982;28;20027;-70
2022/08/19 07:10:17;;;;;;;11.20;6.35;;;19.60;91.40;;;;;;4952556;28;20046;-69
2022/08/19 07:12:43;;;;;;;12.13;6.90;;;19.70;91.60;;;;;;4950828;28;20042;-70
2022/08/19 07:15:10;;;;;;;10.13;5.22;;;19.70;91.50;;;;;;4952836;28;20461;-70
2022/08/19 07:17:38;;;;;;;9.95;5.85;;;19.80;91.40;;;;;;4952019;28;20379;-70
2022/08/19 07:20:06;;;;;;;7.40;4.97;;;19.80;91.20;;;;;;4952016;28;20031;-70
2022/08/19 07:22:33;;;;;;;6.60;3.80;;;19.80;91.10;;;;;;4951853;28;20443;-70
2022/08/19 07:24:59;;;;;;;12.93;6.93;;;19.90;90.90;;;;;;4950938;28;20091;-69
2022/08/19 07:27:25;;;;;;;10.80;6.03;;;19.90;91.40;;;;;;4948880;28;20383;-70
2022/08/19 07:29:52;;;;;;;8.82;5.63;;;19.90;91.50;;;;;;4951408;28;20035;-70
2022/08/19 07:32:17;;;;;;;5.20;2.78;;;20.00;91.40;;;;;;4951588;28;20039;-70
2022/08/19 07:34:43;;;;;;;8.30;4.85;;;20.00;91.00;;;;;;4951423;28;20046;-70
2022/08/19 07:37:09;;;;;;;2.47;1.70;;;20.00;91.30;;;;;;4952070;28;20483;-70
2022/08/19 07:39:36;;;;;;;4.65;2.55;;;20.00;91.30;;;;;;4948836;28;20043;-71
2022/08/19 07:42:06;;;;;;;2.03;1.65;;;20.00;91.80;;;;;;4949048;28;20027;-74
2022/08/19 07:44:33;;;;;;;3.25;1.95;;;20.00;92.00;;;;;;4949576;28;20406;-75
2022/08/19 07:47:00;;;;;;;11.18;5.38;;;20.10;92.00;;;;;;4948696;28;20036;-70
2022/08/19 07:49:26;;;;;;;8.43;4.88;;;20.10;92.40;;;;;;4947853;28;20471;-73
2022/08/19 07:52:01;;;;;;;9.23;4.45;;;20.10;92.20;;;;;;4950549;28;20038;-69
2022/08/19 07:54:30;;;;;;;7.35;4.18;;;20.10;92.70;;;;;;4946433;28;20032;-70
2022/08/19 07:56:56;;;;;;;7.18;4.07;;;20.20;93.10;;;;;;4951000;28;20058;-75
2022/08/19 07:59:25;;;;;;;3.65;1.95;;;20.20;93.00;;;;;;4950965;28;20065;-68
2022/08/19 08:01:51;;;;;;;14.43;4.85;;;20.30;93.40;;;;;;4948788;28;20047;-70
2022/08/19 08:09:48;;;;;;;10.73;6.10;;;20.40;93.80;;;;;;4948509;28;20467;-69
2022/08/19 08:12:23;;;;;;;9.20;5.68;;;20.50;94.00;;;;;;4951747;28;20045;-68
2022/08/19 08:14:52;;;;;;;10.88;6.88;;;20.60;94.00;;;;;;4947906;28;20028;-69
2022/08/19 08:17:20;;;;;;;10.27;5.68;;;20.70;94.00;;;;;;4951972;28;20504;-68
2022/08/19 08:19:46;;;;;;;21.52;6.70;;;20.70;93.70;;;;;;4951245;28;20041;-70
2022/08/19 08:25:11;;;;;;;13.98;7.20;;;20.90;94.00;;;;;;4952215;28;20027;-69
2022/08/19 08:27:42;;;;;;;7.97;5.38;;;21.00;93.90;;;;;;4948408;28;20118;-74
2022/08/19 08:30:10;;;;;;;12.45;7.90;;;21.10;93.50;;;;;;4949764;28;20028;-72
2022/08/19 08:32:38;;;;;;;10.80;6.70;;;21.10;93.50;;;;;;4951767;28;20034;-71
2022/08/19 08:35:09;;;;;;;17.08;8.52;;;21.10;93.50;;;;;;4952103;28;20046;-71
2022/08/19 08:37:35;;;;;;;16.23;7.60;;;21.20;93.80;;;;;;4947626;28;20032;-71
2022/08/19 08:40:25;;;;;;;13.13;6.78;;;21.20;93.50;;;;;;4948906;28;20386;-71
2022/08/19 08:43:04;;;;;;;13.18;8.10;;;21.30;93.70;;;;;;4941524;28;20042;-71
2022/08/19 08:45:32;;;;;;;15.30;8.50;;;21.30;93.90;;;;;;4948998;28;20073;-71
2022/08/19 08:48:03;;;;;;;11.75;7.65;;;21.50;94.00;;;;;;4945162;28;20027;-71
2022/08/19 08:50:35;;;;;;;14.82;7.47;;;21.50;93.80;;;;;;4948689;28;20526;-71
2022/08/19 08:53:05;;;;;;;14.60;9.10;;;21.50;93.50;;;;;;4943053;28;20087;-71
2022/08/19 08:55:31;;;;;;;14.38;8.23;;;21.60;93.70;;;;;;4935986;28;20119;-71
2022/08/19 08:58:17;;;;;;;14.27;7.15;;;21.70;93.90;;;;;;4936120;28;21078;-71
2022/08/19 09:00:48;;;;;;;15.25;7.88;;;21.70;93.30;;;;;;4946424;28;20039;-71
2022/08/19 09:03:23;;;;;;;15.95;9.82;;;21.80;93.10;;;;;;4953970;28;20051;-66
2022/08/19 09:06:06;;;;;;;18.35;7.00;;;21.90;93.40;;;;;;4943316;28;20039;-70
2022/08/19 09:08:35;;;;;;;12.75;7.78;;;21.90;92.90;;;;;;4940149;28;20041;-71
2022/08/19 09:11:06;;;;;;;16.00;8.70;;;22.00;92.70;;;;;;4938096;28;20070;-71
2022/08/19 09:14:00;;;;;;;17.15;7.85;;;22.00;92.80;;;;;;4941114;28;20066;-71
2022/08/19 09:16:27;;;;;;;11.02;6.53;;;22.10;92.60;;;;;;4940791;28;20030;-73
2022/08/19 09:19:05;;;;;;;7.35;5.28;;;22.10;92.40;;;;;;4938130;28;20043;-71
2022/08/19 09:21:31;;;;;;;11.25;5.25;;;22.20;92.50;;;;;;4936723;28;20043;-71
2022/08/19 09:23:58;;;;;;;11.63;5.50;;;22.20;92.40;;;;;;4936337;28;20036;-71
2022/08/19 09:26:24;;;;;;;11.35;6.55;;;22.20;92.30;;;;;;4938421;28;20040;-71
2022/08/19 09:28:52;;;;;;;10.80;6.93;;;22.40;92.50;;;;;;4935189;28;20061;-70
2022/08/19 09:31:26;;;;;;;16.42;7.88;;;22.40;92.50;;;;;;4938137;28;20487;-71
2022/08/19 09:33:56;;;;;;;11.15;7.03;;;22.60;92.40;;;;;;4940015;28;20050;-71
2022/08/19 09:36:24;;;;;;;11.68;5.60;;;22.70;92.20;;;;;;4939129;28;20048;-71
2022/08/19 09:38:51;;;;;;;13.40;6.78;;;22.80;91.80;;;;;;4935951;28;20039;-71
2022/08/19 09:41:19;;;;;;;9.18;6.60;;;22.80;92.00;;;;;;4948046;28;20027;-71
2022/08/19 09:43:48;;;;;;;7.38;5.00;;;22.90;92.10;;;;;;4941340;28;20375;-71
2022/08/19 09:46:16;;;;;;;10.10;6.20;;;23.00;91.60;;;;;;4937893;28;20028;-71
2022/08/19 09:48:44;;;;;;;8.90;5.60;;;23.10;91.40;;;;;;4937852;28;20032;-71
2022/08/19 09:51:15;;;;;;;9.23;5.65;;;23.10;91.30;;;;;;4936970;28;20042;-71
2022/08/19 09:53:43;;;;;;;10.65;6.07;;;23.10;91.50;;;;;;4942483;28;20122;-71
2022/08/19 09:56:09;;;;;;;10.88;5.13;;;23.20;91.10;;;;;;4936393;28;20020;-71
2022/08/19 09:58:36;;;;;;;12.60;6.65;;;23.20;91.00;;;;;;4936241;28;20039;-72
2022/08/19 10:01:02;;;;;;;11.32;6.00;;;23.20;91.10;;;;;;4936429;28;20035;-72
2022/08/19 10:03:30;;;;;;;10.88;7.03;;;23.20;91.10;;;;;;4940465;28;20055;-76
2022/08/19 10:05:56;;;;;;;8.27;6.03;;;23.40;91.10;;;;;;4939209;28;20027;-72
2022/08/19 10:08:34;;;;;;;9.50;6.00;;;23.40;90.90;;;;;;4937126;28;20047;-72
2022/08/19 10:11:01;;;;;;;7.47;4.78;;;23.40;91.00;;;;;;4933726;28;20380;-75
2022/08/19 10:13:29;;;;;;;10.68;5.22;;;23.40;90.80;;;;;;4942104;28;20043;-71
2022/08/19 10:16:13;;;;;;;7.70;5.43;;;23.50;90.60;;;;;;4933134;28;20038;-73
2022/08/19 10:18:42;;;;;;;10.90;6.85;;;23.60;90.50;;;;;;4933276;28;20074;-73
2022/08/19 10:21:16;;;;;;;10.77;5.53;;;23.60;90.40;;;;;;4938684;28;20045;-71
2022/08/19 10:23:45;;;;;;;9.18;6.10;;;23.70;90.60;;;;;;4936530;28;20114;-71
2022/08/19 10:26:17;;;;;;;10.43;6.03;;;23.70;90.40;;;;;;4938555;28;20031;-70
2022/08/19 10:28:43;;;;;;;9.15;6.30;;;23.80;90.30;;;;;;4938645;28;20467;-70
2022/08/19 10:31:22;;;;;;;11.05;5.45;;;23.70;90.10;;;;;;4936446;28;20043;-71
2022/08/19 10:33:49;;;;;;;10.43;5.72;;;23.80;90.40;;;;;;4937599;28;20117;-73
2022/08/19 10:36:18;;;;;;;12.88;6.63;;;23.80;90.30;;;;;;4933297;28;20122;-71
2022/08/19 10:38:49;;;;;;;13.65;6.30;;;23.80;90.20;;;;;;4933270;28;20126;-71
2022/08/19 10:41:22;;;;;;;10.68;6.80;;;23.80;90.10;;;;;;4932447;28;20027;-72
2022/08/19 10:43:52;;;;;;;9.43;5.38;;;23.90;90.40;;;;;;4939123;28;20032;-72
2022/08/19 10:46:18;;;;;;;4.95;3.50;;;23.90;90.30;;;;;;4934331;28;20047;-72
2022/08/19 10:48:44;;;;;;;9.00;6.20;;;23.90;90.50;;;;;;4941182;28;20039;-72
2022/08/19 10:53:57;;;;;;;10.52;6.55;;;24.00;90.40;;;;;;4936537;28;20368;-72
2022/08/19 10:59:09;;;;;;;9.98;5.60;;;24.00;90.70;;;;;;4938389;28;20048;-71
2022/08/19 11:01:35;;;;;;;10.50;6.30;;;24.00;90.30;;;;;;4932970;28;20032;-72
2022/08/19 11:04:04;;;;;;;7.65;4.65;;;24.10;90.10;;;;;;4935067;28;20064;-72
2022/08/19 11:06:31;;;;;;;6.00;3.92;;;24.20;90.30;;;;;;4934560;28;20111;-72
2022/08/19 11:08:59;;;;;;;9.25;4.95;;;24.30;90.50;;;;;;4935088;28;20032;-71
2022/08/19 11:11:26;;;;;;;10.75;4.88;;;24.30;90.30;;;;;;4933491;28;20118;-71
2022/08/19 11:13:52;;;;;;;10.70;6.28;;;24.30;90.10;;;;;;4944265;28;20165;-74
2022/08/19 11:16:24;;;;;;;6.82;4.30;;;24.30;90.10;;;;;;4937213;28;20040;-71
2022/08/19 11:19:01;;;;;;;10.48;6.57;;;24.40;90.30;;;;;;4936178;28;20563;-71
2022/08/19 11:21:34;;;;;;;5.05;3.67;;;24.40;90.10;;;;;;4935860;28;20057;-71
2022/08/19 11:24:09;;;;;;;11.13;5.90;;;24.40;90.10;;;;;;4934662;28;20399;-72
2022/08/19 11:26:36;;;;;;;11.57;6.40;;;24.50;90.20;;;;;;4937884;28;20554;-71
2022/08/19 11:29:03;;;;;;;12.23;6.38;;;24.50;90.00;;;;;;4938513;28;20151;-75
2022/08/19 11:31:31;;;;;;;7.60;4.07;;;24.60;89.50;;;;;;4940906;28;20543;-75
2022/08/19 11:33:59;;;;;;;6.07;3.55;;;24.60;88.90;;;;;;4938004;28;20043;-75
2022/08/19 11:36:26;;;;;;;8.15;5.53;;;24.70;89.00;;;;;;4938270;28;20067;-75
2022/08/19 11:38:52;;;;;;;7.28;4.55;;;24.70;88.60;;;;;;4940453;28;20031;-74
2022/08/19 11:41:19;;;;;;;8.25;5.60;;;24.80;89.00;;;;;;4938940;28;20670;-75
2022/08/19 11:43:45;;;;;;;18.40;9.88;;;24.80;88.60;;;;;;4941493;28;20036;-74
2022/08/19 11:46:14;;;;;;;13.43;7.40;;;24.90;88.90;;;;;;4943443;28;20038;-74
2022/08/19 11:48:40;;;;;;;17.73;10.43;;;25.00;89.60;;;;;;4942196;28;20127;-74
2022/08/19 11:51:15;;;;;;;14.00;11.07;;;25.00;89.60;;;;;;4935827;28;20576;-75
2022/08/19 11:53:41;;;;;;;13.27;9.85;;;25.20;89.50;;;;;;4943830;28;20032;-74
2022/08/19 11:56:08;;;;;;;16.27;8.68;;;25.30;89.40;;;;;;4937039;28;20030;-74
2022/08/19 11:58:35;;;;;;;14.35;9.07;;;25.40;88.60;;;;;;4936652;28;20538;-74
2022/08/19 12:01:01;;;;;;;14.40;9.50;;;25.40;88.20;;;;;;4945705;28;20356;-74
2022/08/19 12:03:27;;;;;;;14.20;8.23;;;25.50;87.60;;;;;;4937161;28;20535;-74
2022/08/19 12:05:54;;;;;;;13.32;8.73;;;25.60;87.50;;;;;;4939263;28;20036;-74
2022/08/19 12:08:20;;;;;;;14.90;9.45;;;25.70;87.40;;;;;;4941251;28;20122;-75
2022/08/19 12:10:45;;;;;;;15.55;11.13;;;25.80;87.20;;;;;;4938696;28;20110;-74
2022/08/19 12:13:18;;;;;;;14.25;9.85;;;25.90;87.00;;;;;;4939157;28;20536;-72
2022/08/19 12:15:45;;;;;;;14.60;9.70;;;26.00;86.70;;;;;;4943790;28;20039;-71
2022/08/19 12:18:13;;;;;;;12.88;9.25;;;26.00;87.20;;;;;;4944119;28;20089;-73
2022/08/19 12:20:40;;;;;;;16.13;8.32;;;26.00;86.40;;;;;;4937351;28;20038;-73
2022/08/19 12:23:09;;;;;;;12.50;8.68;;;26.10;86.90;;;;;;4940776;28;20468;-73
2022/08/19 12:25:35;;;;;;;13.00;8.70;;;26.20;87.50;;;;;;4935734;28;20035;-73
2022/08/19 12:28:03;;;;;;;12.10;7.00;;;26.20;87.30;;;;;;4938284;28;20466;-73
2022/08/19 12:30:29;;;;;;;11.82;7.30;;;26.20;87.40;;;;;;4940437;28;20024;-74
2022/08/19 12:32:55;;;;;;;9.32;6.45;;;26.20;87.30;;;;;;4934761;28;20476;-74
2022/08/19 12:35:21;;;;;;;9.95;6.25;;;26.20;86.80;;;;;;4938435;28;20086;-74
2022/08/19 12:37:48;;;;;;;11.82;7.45;;;26.20;86.80;;;;;;4942998;28;20036;-73
2022/08/19 12:40:15;;;;;;;12.18;7.70;;;26.20;86.70;;;;;;4937150;28;20043;-73
2022/08/19 12:42:43;;;;;;;15.15;8.93;;;26.20;86.60;;;;;;4939808;28;20038;-74
2022/08/19 12:45:11;;;;;;;19.60;8.55;;;26.20;86.50;;;;;;4939319;28;20028;-71
2022/08/19 12:47:37;;;;;;;11.32;7.28;;;26.30;86.50;;;;;;4943559;28;20066;-76
2022/08/19 12:50:04;;;;;;;12.60;8.65;;;26.30;87.00;;;;;;4938467;28;20081;-75
2022/08/19 12:52:30;;;;;;;10.13;6.53;;;26.40;86.90;;;;;;4942638;28;20484;-73
2022/08/19 12:54:57;;;;;;;13.63;7.45;;;26.40;86.60;;;;;;4938601;28;20063;-76
2022/08/19 12:57:24;;;;;;;11.25;7.45;;;26.40;86.00;;;;;;4943625;28;20063;-76
2022/08/19 12:59:53;;;;;;;10.68;7.10;;;26.50;85.70;;;;;;4942892;28;20092;-77
2022/08/19 13:02:19;;;;;;;14.52;8.93;;;26.50;85.80;;;;;;4936759;28;20060;-76
2022/08/19 13:04:45;;;;;;;11.40;6.43;;;26.50;85.40;;;;;;4942793;28;20063;-77
2022/08/19 13:07:11;;;;;;;11.32;5.97;;;26.60;86.20;;;;;;4943285;28;20055;-77